Time;durP1;ratioP1;P1;durP2;ratioP2;P2;SDS_P1;SDS_P2;PMS_P1;PMS_P2;Temp;Humidity;BMP_temperature;BMP_pressure;BME280_temperature;BME280_humidity;BME280_pressure;Samples;Min_cycle;Max_cycle;Signal;HPM_P1;HPM_P2
2023/01/22 00:02:25;;;;;;;50.10;25.00;;;;;;;2.64;100.00;100705.99;107510;1276;25339;-71
2023/01/22 00:04:52;;;;;;;52.30;24.30;;;;;;;2.61;100.00;100712.31;107500;1276;25350;-69
2023/01/22 00:07:19;;;;;;;48.10;24.30;;;;;;;2.56;100.00;100710.48;107621;1276;22570;-69
2023/01/22 00:09:46;;;;;;;40.50;22.40;;;;;;;2.58;100.00;100712.87;107545;1276;22517;-69
2023/01/22 00:12:14;;;;;;;54.20;24.10;;;;;;;2.61;100.00;100714.63;107386;1269;22524;-70
2023/01/22 00:14:42;;;;;;;54.30;25.30;;;;;;;2.61;100.00;100718.23;108528;1276;22257;-70
2023/01/22 00:17:09;;;;;;;40.00;24.10;;;;;;;2.62;100.00;100723.44;110399;1276;22610;-71
2023/01/22 01:57:11;;;;;;;89.40;36.60;;;;;;;1.11;100.00;100780.30;104328;1304;545136;-69
2023/01/22 01:59:38;;;;;;;96.70;35.30;;;;;;;1.24;100.00;100781.31;106451;1288;22593;-69
2023/01/22 02:02:05;;;;;;;65.90;31.90;;;;;;;1.42;100.00;100785.15;106577;1287;24365;-69
2023/01/22 02:04:32;;;;;;;57.60;30.10;;;;;;;1.57;100.00;100785.29;106932;1285;23342;-69
2023/01/22 02:07:00;;;;;;;53.20;27.00;;;;;;;1.69;100.00;100785.02;106651;1285;24288;-70
2023/01/22 02:09:28;;;;;;;47.10;24.30;;;;;;;1.79;100.00;100793.85;106734;1284;22658;-71
2023/01/22 02:11:55;;;;;;;43.60;24.10;;;;;;;1.88;100.00;100796.51;106788;1280;25916;-69
2023/01/22 02:14:26;;;;;;;37.70;21.90;;;;;;;1.94;100.00;100797.30;107109;1282;24363;-70
2023/01/22 02:17:11;;;;;;;40.90;23.90;;;;;;;2.00;100.00;100804.48;107712;1282;22737;-71
2023/01/22 02:19:39;;;;;;;32.20;19.70;;;;;;;2.07;100.00;100802.17;107062;1282;24427;-70
2023/01/22 02:22:20;;;;;;;27.00;18.90;;;;;;;2.12;100.00;100803.86;106939;1281;22568;-70
2023/01/22 02:24:48;;;;;;;28.60;18.00;;;;;;;2.19;100.00;100809.93;107024;1282;24583;-70
2023/01/22 02:27:16;;;;;;;35.60;18.90;;;;;;;2.22;100.00;100807.36;106809;1280;23595;-70
2023/01/22 02:29:43;;;;;;;31.10;18.20;;;;;;;2.23;100.00;100805.18;106955;1282;24223;-71
2023/01/22 02:32:11;;;;;;;39.50;18.90;;;;;;;2.25;100.00;100804.58;106917;1282;24377;-70
2023/01/22 02:34:38;;;;;;;29.40;17.90;;;;;;;2.29;100.00;100814.63;107651;1278;22707;-71
2023/01/22 02:37:05;;;;;;;26.00;17.10;;;;;;;2.32;100.00;100809.94;109691;1283;22751;-71
2023/01/22 02:39:32;;;;;;;32.40;19.40;;;;;;;2.35;100.00;100810.19;109718;1277;22204;-71
2023/01/22 02:42:01;;;;;;;31.50;18.70;;;;;;;2.40;100.00;100813.86;109686;1282;22303;-71
2023/01/22 02:44:28;;;;;;;40.00;18.40;;;;;;;2.42;100.00;100817.53;109721;1282;22925;-71
2023/01/22 02:46:55;;;;;;;46.80;19.10;;;;;;;2.41;100.00;100815.94;109777;1282;22236;-70
2023/01/22 02:49:22;;;;;;;35.50;19.20;;;;;;;2.45;100.00;100820.02;109819;1283;22479;-71
2023/01/22 02:51:49;;;;;;;29.10;18.50;;;;;;;2.50;100.00;100827.81;109676;1275;22406;-71
2023/01/22 02:54:17;;;;;;;33.90;20.10;;;;;;;2.54;100.00;100827.59;109742;1282;22330;-71
2023/01/22 02:56:44;;;;;;;33.90;19.60;;;;;;;2.57;100.00;100819.14;109817;1282;22452;-70
2023/01/22 02:59:11;;;;;;;30.30;17.50;;;;;;;2.61;100.00;100822.04;107787;1282;24360;-70
2023/01/22 03:01:39;;;;;;;31.30;19.70;;;;;;;2.60;100.00;100823.80;107104;1282;22567;-70
2023/01/22 03:04:12;;;;;;;34.30;21.20;;;;;;;2.63;100.00;100826.40;106969;1282;25454;-70
2023/01/22 03:06:42;;;;;;;36.70;20.60;;;;;;;2.68;100.00;100828.63;106921;1283;22563;-70
2023/01/22 03:09:10;;;;;;;32.80;20.60;;;;;;;2.73;100.00;100832.68;106867;1282;22522;-70
2023/01/22 03:11:37;;;;;;;29.80;19.80;;;;;;;2.77;100.00;100835.07;106712;1282;24210;-70
2023/01/22 03:22:25;;;;;;;29.90;19.40;;;;;;;2.77;100.00;100841.42;107262;1278;22533;-70
2023/01/22 03:24:52;;;;;;;32.00;20.00;;;;;;;2.79;100.00;100843.70;107261;1280;23286;-70
2023/01/22 03:27:22;;;;;;;29.70;19.80;;;;;;;2.78;100.00;100844.75;107476;1278;22614;-70
2023/01/22 03:29:49;;;;;;;39.10;20.40;;;;;;;2.76;100.00;100847.92;109934;1274;22288;-71
2023/01/22 03:32:17;;;;;;;36.40;20.20;;;;;;;2.71;100.00;100849.58;109959;1278;22567;-71
2023/01/22 03:34:45;;;;;;;32.90;20.20;;;;;;;2.70;100.00;100849.02;110057;1278;22424;-71
2023/01/22 03:37:12;;;;;;;34.60;19.50;;;;;;;2.72;100.00;100852.15;109909;1277;22462;-71
2023/01/22 03:39:40;;;;;;;33.90;21.10;;;;;;;2.76;100.00;100860.83;109961;1278;22476;-70
2023/01/22 03:42:08;;;;;;;28.60;19.00;;;;;;;2.79;100.00;100861.81;109921;1280;22416;-71
2023/01/22 03:44:35;;;;;;;40.90;21.80;;;;;;;2.80;100.00;100866.86;109969;1278;22170;-71
2023/01/22 03:47:02;;;;;;;32.50;20.50;;;;;;;2.79;100.00;100871.54;109888;1278;22317;-71
2023/01/22 03:49:30;;;;;;;34.00;21.30;;;;;;;2.82;100.00;100869.91;109898;1278;23657;-71
2023/01/22 03:51:57;;;;;;;38.40;21.00;;;;;;;2.85;100.00;100871.84;110002;1276;22283;-70
2023/01/22 03:54:24;;;;;;;37.00;20.30;;;;;;;2.88;100.00;100870.54;109978;1278;22445;-71
2023/01/22 03:56:53;;;;;;;36.50;22.40;;;;;;;2.92;100.00;100874.33;109960;1279;22311;-71
2023/01/22 03:59:26;;;;;;;36.30;22.30;;;;;;;2.89;100.00;100878.82;109954;1279;22374;-71
2023/01/22 04:01:53;;;;;;;35.30;21.50;;;;;;;2.91;100.00;100878.01;109947;1279;23016;-71
2023/01/22 04:04:20;;;;;;;34.80;21.50;;;;;;;2.92;100.00;100875.58;110053;1274;22406;-71
2023/01/22 04:06:47;;;;;;;33.20;20.40;;;;;;;2.92;100.00;100877.12;109959;1279;22320;-71
2023/01/22 04:09:15;;;;;;;30.50;19.40;;;;;;;2.93;100.00;100879.77;109942;1279;22199;-71
2023/01/22 04:11:45;;;;;;;33.30;20.30;;;;;;;2.90;100.00;100876.68;109881;1279;23173;-71
2023/01/22 04:14:14;;;;;;;34.20;19.80;;;;;;;2.94;100.00;100884.20;109890;1279;23110;-71
2023/01/22 04:16:53;;;;;;;31.30;19.40;;;;;;;2.97;100.00;100890.39;109947;1280;22374;-71
2023/01/22 04:19:50;;;;;;;32.50;20.40;;;;;;;2.97;100.00;100889.11;109986;1279;22227;-70
2023/01/22 04:22:55;;;;;;;37.60;21.50;;;;;;;2.98;100.00;100894.02;109959;1279;22315;-71
2023/01/22 04:25:23;;;;;;;33.90;20.10;;;;;;;2.92;100.00;100898.10;109868;1279;22337;-71
2023/01/22 04:27:50;;;;;;;33.90;20.10;;;;;;;2.97;100.00;100897.21;110002;1277;23451;-71
2023/01/22 04:30:18;;;;;;;33.60;19.20;;;;;;;3.03;100.00;100903.06;110040;1276;22263;-71
2023/01/22 04:32:47;;;;;;;30.80;18.10;;;;;;;3.08;100.00;100906.29;107997;1279;23536;-70
2023/01/22 04:35:27;;;;;;;36.10;19.90;;;;;;;3.11;100.00;100903.76;107384;1279;22575;-70
2023/01/22 04:37:57;;;;;;;31.10;19.90;;;;;;;3.08;100.00;100900.55;107188;1279;22756;-70
2023/01/22 04:40:24;;;;;;;34.60;20.20;;;;;;;3.04;100.00;100904.20;107077;1279;22549;-70
2023/01/22 04:42:51;;;;;;;29.50;18.10;;;;;;;3.02;100.00;100902.23;107186;1279;23308;-70
2023/01/22 04:45:19;;;;;;;31.80;19.40;;;;;;;3.06;100.00;100910.54;107127;1279;24205;-70
2023/01/22 04:47:47;;;;;;;31.50;18.50;;;;;;;3.08;100.00;100911.78;107148;1279;22546;-70
2023/01/22 04:50:18;;;;;;;30.50;18.90;;;;;;;3.07;100.00;100916.81;107284;1279;22981;-70
2023/01/22 04:52:46;;;;;;;36.50;20.50;;;;;;;3.06;100.00;100915.75;107305;1276;25324;-70
2023/01/22 04:55:13;;;;;;;30.90;20.00;;;;;;;3.08;100.00;100920.36;107405;1279;25499;-70
2023/01/22 04:58:01;;;;;;;34.30;19.90;;;;;;;3.06;100.00;100923.28;107343;1280;23380;-70
2023/01/22 05:00:29;;;;;;;31.10;18.90;;;;;;;3.00;100.00;100921.45;107421;1280;22637;-70
2023/01/22 05:02:58;;;;;;;30.00;18.10;;;;;;;2.97;100.00;100924.20;107428;1279;24346;-70
2023/01/22 05:05:27;;;;;;;30.90;19.40;;;;;;;2.91;100.00;100922.37;107464;1280;23126;-70
2023/01/22 05:07:54;;;;;;;28.70;18.70;;;;;;;2.84;100.00;100918.05;107180;1279;23318;-70
2023/01/22 05:10:21;;;;;;;25.90;17.20;;;;;;;2.81;100.00;100922.48;106916;1279;22534;-70
2023/01/22 05:12:48;;;;;;;23.90;16.10;;;;;;;2.78;100.00;100921.63;107145;1279;23279;-70
2023/01/22 05:15:17;;;;;;;23.40;14.90;;;;;;;2.74;100.00;100930.77;107204;1276;22587;-71
2023/01/22 05:17:53;;;;;;;22.60;15.30;;;;;;;2.70;100.00;100930.97;107127;1279;24206;-69
2023/01/22 05:20:20;;;;;;;27.90;16.20;;;;;;;2.62;100.00;100935.03;107146;1279;24266;-70
2023/01/22 05:22:48;;;;;;;23.00;15.40;;;;;;;2.54;100.00;100934.70;107381;1273;22914;-70
2023/01/22 05:25:17;;;;;;;23.60;14.50;;;;;;;2.52;100.00;100935.84;107394;1280;25371;-69
2023/01/22 05:27:45;;;;;;;20.20;14.00;;;;;;;2.51;100.00;100936.06;107231;1275;24945;-70
2023/01/22 05:30:17;;;;;;;18.60;12.20;;;;;;;2.52;100.00;100937.77;107758;1275;23108;-70
2023/01/22 05:32:56;;;;;;;17.30;12.10;;;;;;;2.53;100.00;100946.64;110107;1278;22293;-71
2023/01/22 05:35:24;;;;;;;21.30;13.50;;;;;;;2.51;100.00;100950.66;110025;1262;22214;-70
2023/01/22 05:37:52;;;;;;;18.50;12.90;;;;;;;2.55;100.00;100956.67;110007;1278;22274;-70
2023/01/22 05:40:20;;;;;;;17.70;11.50;;;;;;;2.60;100.00;100962.98;110025;1278;22193;-70
2023/01/22 05:42:47;;;;;;;17.40;11.80;;;;;;;2.66;100.00;100963.94;110013;1278;22516;-70
2023/01/22 05:45:15;;;;;;;17.70;11.60;;;;;;;2.71;100.00;100966.98;109970;1278;22229;-71
2023/01/22 05:48:00;;;;;;;18.00;12.40;;;;;;;2.74;100.00;100971.02;110100;1278;22218;-71
2023/01/22 05:50:39;;;;;;;19.00;12.10;;;;;;;2.72;100.00;100977.98;109971;1280;22321;-70
2023/01/22 05:53:10;;;;;;;16.80;11.10;;;;;;;2.76;100.00;100986.14;110058;1279;22204;-71
2023/01/22 05:55:37;;;;;;;17.30;11.20;;;;;;;2.78;100.00;100983.17;109938;1279;22351;-71
2023/01/22 05:58:04;;;;;;;16.70;11.10;;;;;;;2.83;100.00;100991.60;109933;1280;22567;-70
2023/01/22 06:00:33;;;;;;;15.40;11.40;;;;;;;2.83;100.00;100997.31;109977;1280;22234;-71
2023/01/22 06:03:01;;;;;;;17.30;11.90;;;;;;;2.80;100.00;101000.25;109869;1280;22497;-71
2023/01/22 06:05:31;;;;;;;17.00;11.70;;;;;;;2.84;100.00;101002.70;109905;1280;22192;-71
2023/01/22 06:08:03;;;;;;;15.50;11.10;;;;;;;2.89;100.00;101001.23;109989;1279;23107;-71
2023/01/22 06:10:36;;;;;;;17.40;11.50;;;;;;;2.95;100.00;101000.12;109900;1279;22205;-71
2023/01/22 06:13:03;;;;;;;16.20;11.10;;;;;;;2.96;100.00;101001.29;109911;1280;22946;-71
2023/01/22 06:15:31;;;;;;;17.50;11.80;;;;;;;2.95;100.00;101000.48;109901;1279;22407;-71
2023/01/22 06:18:09;;;;;;;16.50;11.70;;;;;;;2.99;100.00;101006.29;109975;1279;22198;-71
2023/01/22 06:20:37;;;;;;;16.50;11.30;;;;;;;3.05;100.00;101011.68;109915;1280;23164;-71
2023/01/22 06:23:06;;;;;;;16.50;11.90;;;;;;;3.11;100.00;101016.95;109899;1280;22478;-72
2023/01/22 06:25:33;;;;;;;15.60;11.30;;;;;;;3.11;100.00;101020.27;109892;1280;22251;-71
2023/01/22 06:28:09;;;;;;;14.40;11.20;;;;;;;3.11;100.00;101020.89;109910;1280;23086;-70
2023/01/22 06:30:37;;;;;;;16.30;10.90;;;;;;;3.14;100.00;101016.61;109919;1277;22263;-71
2023/01/22 06:33:04;;;;;;;14.60;10.40;;;;;;;3.17;100.00;101021.27;109836;1280;22256;-70
2023/01/22 06:35:31;;;;;;;16.10;11.50;;;;;;;3.16;100.00;101026.06;109921;1280;22241;-71
2023/01/22 06:37:59;;;;;;;16.50;11.20;;;;;;;3.12;100.00;101033.94;109922;1280;22231;-70
2023/01/22 06:40:27;;;;;;;20.60;11.60;;;;;;;3.12;100.00;101033.33;109911;1279;22215;-71
2023/01/22 06:42:56;;;;;;;16.90;10.90;;;;;;;3.15;100.00;101034.42;109937;1279;22231;-71
2023/01/22 06:45:23;;;;;;;14.30;11.20;;;;;;;3.14;100.00;101036.52;109929;1279;22183;-71
2023/01/22 06:47:52;;;;;;;18.90;10.90;;;;;;;3.12;100.00;101041.06;109925;1279;23148;-70
2023/01/22 06:50:19;;;;;;;16.50;11.30;;;;;;;3.17;100.00;101041.11;109897;1279;22760;-71
2023/01/22 06:52:46;;;;;;;17.50;11.50;;;;;;;3.22;100.00;101042.15;109919;1279;22234;-71
2023/01/22 06:55:14;;;;;;;16.60;11.30;;;;;;;3.25;100.00;101043.55;109968;1279;22277;-71
2023/01/22 06:57:41;;;;;;;18.10;12.40;;;;;;;3.26;100.00;101040.73;109930;1278;23392;-71
2023/01/22 07:00:09;;;;;;;19.60;13.70;;;;;;;3.25;100.00;101043.84;109935;1279;22302;-70
2023/01/22 07:02:36;;;;;;;19.80;12.90;;;;;;;3.29;100.00;101044.66;110083;1278;22173;-71
2023/01/22 07:05:04;;;;;;;19.80;12.70;;;;;;;3.31;100.00;101039.31;110132;1278;22367;-71
2023/01/22 07:07:31;;;;;;;20.80;14.70;;;;;;;3.32;100.00;101039.89;109976;1279;22210;-71
2023/01/22 07:09:58;;;;;;;22.80;14.40;;;;;;;3.28;100.00;101038.73;109955;1278;23614;-71
2023/01/22 07:12:25;;;;;;;23.30;14.30;;;;;;;3.24;100.00;101036.26;109910;1279;22295;-71
2023/01/22 07:14:52;;;;;;;20.20;12.70;;;;;;;3.26;100.00;101045.91;110064;1277;22281;-70
2023/01/22 07:17:19;;;;;;;22.40;14.10;;;;;;;3.29;100.00;101052.36;110075;1278;22377;-71
2023/01/22 07:19:46;;;;;;;21.50;14.60;;;;;;;3.26;100.00;101057.98;110040;1279;22284;-70
2023/01/22 07:22:13;;;;;;;22.30;15.10;;;;;;;3.25;100.00;101063.10;109927;1280;23090;-71
2023/01/22 07:24:40;;;;;;;22.70;14.70;;;;;;;3.27;100.00;101067.29;110038;1279;22430;-71
2023/01/22 07:27:07;;;;;;;20.70;14.50;;;;;;;3.29;100.00;101073.18;107856;1278;22659;-70
2023/01/22 07:29:34;;;;;;;21.80;14.60;;;;;;;3.26;100.00;101069.80;107396;1279;23878;-70
2023/01/22 07:32:01;;;;;;;24.80;14.90;;;;;;;3.23;100.00;101067.30;107256;1279;22545;-70
2023/01/22 07:34:28;;;;;;;23.60;14.90;;;;;;;3.24;100.00;101073.43;107473;1279;22562;-70
2023/01/22 07:36:56;;;;;;;20.80;13.80;;;;;;;3.27;100.00;101073.79;107245;1278;24352;-70
2023/01/22 07:39:23;;;;;;;22.40;14.50;;;;;;;3.28;100.00;101072.20;107216;1278;22607;-70
2023/01/22 07:41:50;;;;;;;23.40;15.10;;;;;;;3.24;100.00;101073.96;107259;1280;23128;-70
2023/01/22 07:44:17;;;;;;;22.00;13.50;;;;;;;3.20;100.00;101076.86;107069;1279;25416;-70
2023/01/22 10:10:29;;;;;;;75.90;37.20;;;;;;;1.72;100.00;101114.24;104668;1305;545667;-70
2023/01/22 10:13:17;;;;;;;64.40;33.20;;;;;;;1.86;100.00;101121.45;106538;1285;24820;-69
2023/01/22 10:15:47;;;;;;;46.90;26.40;;;;;;;2.05;100.00;101128.17;106510;1285;25840;-70
2023/01/22 10:18:21;;;;;;;34.80;22.40;;;;;;;2.18;100.00;101130.16;106562;1288;23906;-71
2023/01/22 10:20:48;;;;;;;25.90;16.90;;;;;;;2.32;100.00;101138.60;107191;1276;24226;-71
2023/01/22 10:23:17;;;;;;;21.90;14.50;;;;;;;2.46;100.00;101136.73;109728;1280;186758;-71
2023/01/22 10:25:44;;;;;;;20.60;13.30;;;;;;;2.55;100.00;101136.27;109854;1273;22532;-71
2023/01/22 10:28:11;;;;;;;17.20;12.30;;;;;;;2.60;100.00;101139.87;109866;1276;23057;-71
2023/01/22 10:30:46;;;;;;;17.90;12.60;;;;;;;2.62;100.00;101148.93;109928;1276;22209;-72
2023/01/22 10:33:21;;;;;;;19.20;12.90;;;;;;;2.69;100.00;101148.84;109849;1281;23100;-69
2023/01/22 10:35:52;;;;;;;21.90;14.40;;;;;;;2.75;100.00;101153.61;110042;1279;23038;-70
2023/01/22 10:38:29;;;;;;;18.40;12.40;;;;;;;2.82;100.00;101151.74;109933;1279;22294;-69
2023/01/22 10:40:57;;;;;;;;;;;;;;;2.89;100.00;101150.30;109963;1281;22412;-69
2023/01/22 10:43:32;;;;;;;;;;;;;;;2.89;100.00;101143.94;109831;1279;22508;-70
2023/01/22 10:46:03;;;;;;;22.20;14.80;;;;;;;2.90;100.00;101143.48;109927;1276;22287;-69
2023/01/22 10:48:31;;;;;;;22.80;15.40;;;;;;;2.97;100.00;101142.50;109951;1281;22328;-69
2023/01/22 10:51:02;;;;;;;23.00;14.80;;;;;;;3.03;100.00;101139.10;109975;1281;22242;-69
2023/01/22 10:53:34;;;;;;;25.40;16.10;;;;;;;3.10;100.00;101137.32;109924;1279;23681;-70
2023/01/22 10:56:02;;;;;;;25.70;17.10;;;;;;;3.14;100.00;101139.27;109870;1281;22230;-69
2023/01/22 10:58:32;;;;;;;24.20;15.80;;;;;;;3.17;100.00;101136.04;109835;1281;22323;-69
2023/01/22 11:01:05;;;;;;;23.40;16.20;;;;;;;3.25;100.00;101140.46;109891;1281;23172;-69
2023/01/22 11:03:34;;;;;;;22.80;14.90;;;;;;;3.29;100.00;101134.02;109856;1273;23070;-69
2023/01/22 11:06:25;;;;;;;22.20;15.50;;;;;;;3.30;100.00;101132.91;109931;1273;22920;-70
2023/01/22 11:09:19;;;;;;;25.40;16.80;;;;;;;3.26;100.00;101128.85;109806;1279;22189;-69
2023/01/22 11:11:49;;;;;;;23.60;14.90;;;;;;;3.27;100.00;101128.15;109823;1281;22232;-70
2023/01/22 11:14:21;;;;;;;22.30;15.40;;;;;;;3.28;100.00;101127.80;109933;1273;22213;-70
2023/01/22 11:16:50;;;;;;;24.90;16.20;;;;;;;3.26;100.00;101127.68;109886;1276;22241;-70
2023/01/22 11:19:20;;;;;;;26.30;16.80;;;;;;;3.22;100.00;101127.15;109858;1281;23070;-69
2023/01/22 11:22:02;;;;;;;22.70;14.50;;;;;;;3.26;100.00;101127.02;109915;1281;22205;-69
2023/01/22 11:24:37;;;;;;;22.80;14.30;;;;;;;3.28;100.00;101119.20;109884;1278;22691;-69
2023/01/22 11:27:13;;;;;;;23.20;15.90;;;;;;;3.26;100.00;101115.14;109869;1273;23135;-70
2023/01/22 11:30:05;;;;;;;24.40;15.90;;;;;;;3.16;100.00;101118.02;109866;1279;22209;-68
2023/01/22 11:33:13;;;;;;;25.10;15.20;;;;;;;3.14;100.00;101121.52;109908;1281;22287;-69
2023/01/22 11:35:53;;;;;;;20.60;13.40;;;;;;;3.15;100.00;101120.27;109910;1275;22101;-69
2023/01/22 11:38:39;;;;;;;22.30;14.70;;;;;;;3.09;100.00;101120.50;109893;1278;22238;-69
2023/01/22 11:41:34;;;;;;;23.70;14.40;;;;;;;2.96;100.00;101124.04;110029;1278;23412;-69
2023/01/22 11:44:23;;;;;;;21.30;13.50;;;;;;;2.97;100.00;101123.02;110049;1278;23143;-69
2023/01/22 11:47:02;;;;;;;25.20;15.00;;;;;;;2.97;100.00;101116.63;110073;1279;22195;-70
2023/01/22 11:49:51;;;;;;;25.60;16.30;;;;;;;2.94;100.00;101128.61;110039;1275;22213;-69
2023/01/22 11:52:50;;;;;;;26.20;15.10;;;;;;;2.98;100.00;101145.03;109997;1279;22324;-69
2023/01/22 11:55:38;;;;;;;21.00;13.40;;;;;;;2.99;100.00;101149.73;109990;1279;22218;-69
2023/01/22 11:58:44;;;;;;;23.00;14.70;;;;;;;3.01;100.00;101154.58;110040;1278;23123;-69
2023/01/22 12:01:40;;;;;;;23.70;14.70;;;;;;;3.02;100.00;101156.25;109917;1276;22281;-70
2023/01/22 12:04:07;;;;;;;22.50;13.90;;;;;;;3.07;100.00;101159.85;109960;1272;22238;-69
2023/01/22 12:07:04;;;;;;;25.60;16.30;;;;;;;3.12;100.00;101169.64;109955;1279;22320;-69
2023/01/22 12:09:38;;;;;;;23.60;15.80;;;;;;;3.10;100.00;101172.67;110130;1278;22627;-69
2023/01/22 12:12:29;;;;;;;29.90;19.30;;;;;;;3.05;100.00;101164.95;109952;1280;22262;-69
2023/01/22 12:15:08;;;;;;;37.50;21.20;;;;;;;3.12;100.00;101167.05;110273;1276;22296;-69
2023/01/22 12:17:35;;;;;;;39.20;25.70;;;;;;;3.15;100.00;101171.65;108878;1274;23192;-68
2023/01/22 12:20:25;;;;;;;28.80;19.70;;;;;;;3.13;100.00;101170.95;107543;1276;22628;-68
2023/01/22 12:22:56;;;;;;;35.30;22.30;;;;;;;3.13;100.00;101175.27;107497;1276;22673;-69
2023/01/22 12:25:53;;;;;;;50.60;30.90;;;;;;;3.12;100.00;101176.86;107536;1276;22591;-72
2023/01/22 12:28:33;;;;;;;61.20;40.30;;;;;;;3.03;100.00;101181.44;107540;1276;24278;-71
2023/01/22 12:31:10;;;;;;;37.80;24.70;;;;;;;2.98;100.00;101181.05;107476;1276;24203;-71
2023/01/22 12:33:40;;;;;;;36.00;23.70;;;;;;;2.93;100.00;101185.13;107393;1276;22523;-72
2023/01/22 12:36:09;;;;;;;34.00;22.00;;;;;;;2.91;100.00;101186.48;107362;1276;22559;-71
2023/01/22 12:38:40;;;;;;;39.20;24.20;;;;;;;2.90;100.00;101187.31;107798;1272;22534;-71
2023/01/22 12:41:20;;;;;;;39.30;25.00;;;;;;;2.88;100.00;101186.21;107489;1272;23124;-73
2023/01/22 12:43:51;;;;;;;61.20;32.60;;;;;;;2.89;100.00;101186.11;107402;1276;22527;-71
2023/01/22 12:46:45;;;;;;;39.40;25.20;;;;;;;2.90;100.00;101186.38;110110;1276;22690;-71
2023/01/22 12:49:15;;;;;;;41.70;24.70;;;;;;;2.88;100.00;101190.39;108197;1270;22540;-71
2023/01/22 12:51:44;;;;;;;53.80;35.30;;;;;;;2.81;100.00;101193.20;107710;1276;22548;-73
2023/01/22 12:54:19;;;;;;;50.00;32.30;;;;;;;2.81;100.00;101196.95;110203;1275;23107;-72
2023/01/22 12:56:51;;;;;;;89.90;50.90;;;;;;;2.83;100.00;101198.59;109307;1268;25216;-71
2023/01/22 12:59:46;;;;;;;72.40;44.10;;;;;;;2.79;100.00;101201.56;110020;1275;22324;-73
2023/01/22 13:02:23;;;;;;;63.20;40.50;;;;;;;2.72;100.00;101203.29;109977;1277;22407;-71
2023/01/22 13:04:50;;;;;;;51.90;31.30;;;;;;;2.71;100.00;101206.33;110128;1270;22227;-73
2023/01/22 13:07:27;;;;;;;75.20;37.10;;;;;;;2.69;100.00;101202.09;110145;1277;22214;-73
2023/01/22 13:10:01;;;;;;;;;;;;;;;2.65;100.00;101205.99;110129;1276;22460;-71
2023/01/22 13:12:46;;;;;;;46.60;26.40;;;;;;;2.55;100.00;101206.59;110018;1270;22482;-71
2023/01/22 13:15:36;;;;;;;60.90;34.60;;;;;;;2.54;100.00;101210.91;110095;1275;22230;-71
2023/01/22 13:18:24;;;;;;;39.60;25.20;;;;;;;2.55;100.00;101212.77;109980;1278;22221;-70
2023/01/22 13:21:04;;;;;;;42.60;27.30;;;;;;;2.49;100.00;101214.51;110234;1272;22345;-71
2023/01/22 13:23:34;;;;;;;44.80;29.50;;;;;;;2.49;100.00;101214.08;110126;1276;22978;-72
2023/01/22 13:26:02;;;;;;;31.70;20.30;;;;;;;2.52;100.00;101212.34;110025;1276;22616;-72
2023/01/22 13:28:29;;;;;;;57.50;34.90;;;;;;;2.50;100.00;101215.58;110195;1273;22924;-70
2023/01/22 13:31:04;;;;;;;37.80;21.80;;;;;;;2.47;100.00;101217.64;110314;1276;22163;-70
2023/01/22 13:33:32;;;;;;;43.40;28.00;;;;;;;2.48;100.00;101216.03;110103;1273;22373;-70
2023/01/22 13:36:07;;;;;;;25.20;15.70;;;;;;;2.44;100.00;101222.45;110222;1272;22417;-72
2023/01/22 13:38:34;;;;;;;31.30;23.20;;;;;;;2.39;100.00;101224.50;109998;1276;22447;-72
2023/01/22 13:41:09;;;;;;;27.80;20.20;;;;;;;2.30;100.00;101226.16;109958;1276;22464;-72
2023/01/22 13:43:37;;;;;;;23.90;17.00;;;;;;;2.29;100.00;101230.41;109947;1270;22578;-71
2023/01/22 13:46:05;;;;;;;23.30;15.80;;;;;;;2.28;100.00;101228.66;110195;1276;22201;-72
2023/01/22 13:48:31;;;;;;;22.50;14.90;;;;;;;2.24;100.00;101230.78;110112;1276;23322;-72
2023/01/22 13:51:05;;;;;;;27.00;17.60;;;;;;;2.18;100.00;101230.95;110253;1276;22295;-71
2023/01/22 13:53:42;;;;;;;21.90;14.20;;;;;;;2.18;100.00;101234.98;109991;1270;22462;-72
2023/01/22 13:56:17;;;;;;;23.50;15.30;;;;;;;2.17;100.00;101239.44;110017;1278;22372;-72
2023/01/22 13:58:46;;;;;;;23.80;16.30;;;;;;;2.15;100.00;101247.45;109942;1276;22412;-72
2023/01/22 14:01:32;;;;;;;26.90;16.60;;;;;;;2.17;100.00;101250.96;110098;1276;22234;-72
2023/01/22 14:04:04;;;;;;;33.60;20.60;;;;;;;2.16;100.00;101253.92;110294;1276;22564;-72
2023/01/22 14:06:42;;;;;;;28.20;17.30;;;;;;;2.07;100.00;101260.44;110345;1276;22354;-72
2023/01/22 14:09:09;;;;;;;30.50;18.20;;;;;;;2.06;100.00;101262.80;110179;1275;22360;-73
2023/01/22 14:11:37;;;;;;;20.60;14.50;;;;;;;2.07;100.00;101264.85;110314;1276;22947;-73
2023/01/22 14:14:25;;;;;;;27.10;16.80;;;;;;;2.02;100.00;101265.85;110080;1276;22306;-73
2023/01/22 14:16:52;;;;;;;22.90;15.00;;;;;;;1.95;100.00;101264.25;110192;1269;22107;-71
2023/01/22 14:19:19;;;;;;;24.10;14.60;;;;;;;1.96;100.00;101267.04;108909;1277;22528;-74
2023/01/22 14:21:46;;;;;;;31.90;16.10;;;;;;;1.96;100.00;101267.01;107728;1276;22836;-74
2023/01/22 14:24:13;;;;;;;22.60;13.90;;;;;;;1.93;100.00;101263.96;107727;1276;22568;-74
2023/01/22 14:26:40;;;;;;;24.40;15.70;;;;;;;1.87;100.00;101269.52;107628;1276;22530;-74
2023/01/22 14:29:07;;;;;;;24.70;14.40;;;;;;;1.86;100.00;101270.04;107596;1277;22752;-74
2023/01/22 14:31:34;;;;;;;29.60;15.90;;;;;;;1.83;100.00;101268.77;107732;1276;23153;-74
2023/01/22 14:34:02;;;;;;;26.10;15.80;;;;;;;1.77;100.00;101271.21;107663;1277;23873;-74
2023/01/22 14:36:29;;;;;;;23.70;16.30;;;;;;;1.76;100.00;101267.44;107402;1276;24248;-74
2023/01/22 14:38:56;;;;;;;22.90;15.50;;;;;;;1.73;100.00;101269.65;107219;1276;22533;-74
2023/01/22 14:41:23;;;;;;;27.70;15.60;;;;;;;1.67;100.00;101269.54;108883;1276;22682;-75
2023/01/22 14:43:50;;;;;;;27.10;15.00;;;;;;;1.60;100.00;101275.19;110590;1276;22187;-74
2023/01/22 14:46:17;;;;;;;23.90;15.20;;;;;;;1.60;100.00;101277.20;110518;1277;22251;-75
2023/01/22 14:48:46;;;;;;;25.30;15.70;;;;;;;1.61;100.00;101280.98;110226;1277;22231;-75
2023/01/22 14:51:13;;;;;;;28.10;15.90;;;;;;;1.60;100.00;101274.76;110469;1276;23098;-74
2023/01/22 14:53:40;;;;;;;30.20;16.40;;;;;;;1.54;100.00;101283.31;110028;1276;22850;-74
2023/01/22 14:56:07;;;;;;;23.90;16.30;;;;;;;1.50;100.00;101283.90;107712;1276;22528;-74
2023/01/22 14:58:35;;;;;;;23.40;14.90;;;;;;;1.48;100.00;101283.88;107708;1276;22545;-74
2023/01/22 15:01:13;;;;;;;24.90;16.00;;;;;;;1.42;100.00;101286.08;109533;1270;22292;-74
2023/01/22 15:03:40;;;;;;;30.00;18.20;;;;;;;1.35;100.00;101286.55;110140;1277;23209;-74
2023/01/22 15:06:07;;;;;;;35.60;19.10;;;;;;;1.37;100.00;101285.94;110286;1277;22211;-75
2023/01/22 15:08:35;;;;;;;31.10;19.10;;;;;;;1.34;100.00;101287.39;110198;1276;22718;-75
2023/01/22 15:11:02;;;;;;;24.60;16.40;;;;;;;1.28;100.00;101286.57;110317;1276;23257;-75
2023/01/22 15:13:29;;;;;;;21.00;13.80;;;;;;;1.28;100.00;101297.19;110179;1276;22207;-74
2023/01/22 15:16:00;;;;;;;20.50;13.20;;;;;;;1.29;100.00;101296.33;110271;1277;22194;-75
2023/01/22 15:18:27;;;;;;;27.00;13.40;;;;;;;1.26;100.00;101299.56;110103;1277;22188;-74
2023/01/22 15:20:55;;;;;;;24.30;15.30;;;;;;;1.19;100.00;101301.59;110141;1276;22482;-74
2023/01/22 15:23:24;;;;;;;20.80;15.50;;;;;;;1.20;100.00;101302.05;110361;1276;22753;-75
2023/01/22 15:25:58;;;;;;;22.90;15.50;;;;;;;1.20;100.00;101300.62;110025;1276;22653;-75
2023/01/22 15:28:26;;;;;;;31.00;14.20;;;;;;;1.22;100.00;101301.09;107124;1276;22539;-74
2023/01/22 15:30:57;;;;;;;36.80;24.40;;;;;;;1.15;100.00;101298.67;107555;1276;25519;-74
2023/01/22 15:33:25;;;;;;;27.20;16.00;;;;;;;1.14;100.00;101304.88;107303;1277;23412;-74